sensor_id;sensor_type;location;lat;lon;timestamp;P1;durP1;ratioP1;P2;durP2;ratioP2
32780;SDS011;19136;47.032;15.502;2022-10-16T00:00:40;76.85;;;42.42;;
32780;SDS011;19136;47.032;15.502;2022-10-16T00:03:06;70.95;;;40.63;;
32780;SDS011;19136;47.032;15.502;2022-10-16T00:05:32;76.50;;;43.13;;
32780;SDS011;19136;47.032;15.502;2022-10-16T00:07:58;83.57;;;44.08;;
32780;SDS011;19136;47.032;15.502;2022-10-16T00:10:23;77.75;;;44.38;;
32780;SDS011;19136;47.032;15.502;2022-10-16T00:12:49;85.97;;;44.53;;
32780;SDS011;19136;47.032;15.502;2022-10-16T00:15:15;77.78;;;43.22;;
32780;SDS011;19136;47.032;15.502;2022-10-16T00:17:40;80.15;;;43.17;;
32780;SDS011;19136;47.032;15.502;2022-10-16T00:20:06;88.18;;;44.33;;
32780;SDS011;19136;47.032;15.502;2022-10-16T00:22:32;74.38;;;43.00;;
32780;SDS011;19136;47.032;15.502;2022-10-16T00:24:58;87.82;;;45.03;;
32780;SDS011;19136;47.032;15.502;2022-10-16T00:27:23;72.90;;;41.50;;
32780;SDS011;19136;47.032;15.502;2022-10-16T00:29:49;70.00;;;41.55;;
32780;SDS011;19136;47.032;15.502;2022-10-16T00:32:16;88.55;;;45.17;;
32780;SDS011;19136;47.032;15.502;2022-10-16T00:34:42;82.53;;;43.75;;
32780;SDS011;19136;47.032;15.502;2022-10-16T00:37:08;77.82;;;43.30;;
32780;SDS011;19136;47.032;15.502;2022-10-16T00:39:33;81.00;;;44.35;;
32780;SDS011;19136;47.032;15.502;2022-10-16T00:41:59;89.45;;;46.92;;
32780;SDS011;19136;47.032;15.502;2022-10-16T00:47:22;83.35;;;44.00;;
32780;SDS011;19136;47.032;15.502;2022-10-16T00:49:53;78.70;;;43.05;;
32780;SDS011;19136;47.032;15.502;2022-10-16T00:52:23;78.95;;;43.10;;
32780;SDS011;19136;47.032;15.502;2022-10-16T00:54:49;82.00;;;45.55;;
32780;SDS011;19136;47.032;15.502;2022-10-16T00:57:15;86.97;;;48.40;;
32780;SDS011;19136;47.032;15.502;2022-10-16T00:59:41;83.63;;;45.17;;
32780;SDS011;19136;47.032;15.502;2022-10-16T01:02:09;89.47;;;49.30;;
32780;SDS011;19136;47.032;15.502;2022-10-16T01:04:57;100.05;;;49.28;;
32780;SDS011;19136;47.032;15.502;2022-10-16T01:07:32;83.70;;;47.95;;
32780;SDS011;19136;47.032;15.502;2022-10-16T01:13:02;96.25;;;49.33;;
32780;SDS011;19136;47.032;15.502;2022-10-16T01:16:05;89.60;;;49.40;;
32780;SDS011;19136;47.032;15.502;2022-10-16T01:21:10;87.40;;;47.15;;
32780;SDS011;19136;47.032;15.502;2022-10-16T01:29:30;88.40;;;48.95;;
32780;SDS011;19136;47.032;15.502;2022-10-16T01:32:02;88.03;;;47.17;;
32780;SDS011;19136;47.032;15.502;2022-10-16T01:34:33;90.67;;;45.90;;
32780;SDS011;19136;47.032;15.502;2022-10-16T01:37:04;81.10;;;45.33;;
32780;SDS011;19136;47.032;15.502;2022-10-16T01:39:32;89.10;;;47.78;;
32780;SDS011;19136;47.032;15.502;2022-10-16T01:42:09;99.88;;;51.38;;
32780;SDS011;19136;47.032;15.502;2022-10-16T01:44:38;92.15;;;50.33;;
32780;SDS011;19136;47.032;15.502;2022-10-16T01:47:05;88.78;;;49.08;;
32780;SDS011;19136;47.032;15.502;2022-10-16T01:49:33;99.60;;;50.25;;
32780;SDS011;19136;47.032;15.502;2022-10-16T01:52:00;86.55;;;48.22;;
32780;SDS011;19136;47.032;15.502;2022-10-16T01:54:28;80.95;;;45.28;;
32780;SDS011;19136;47.032;15.502;2022-10-16T01:56:56;87.65;;;48.65;;
32780;SDS011;19136;47.032;15.502;2022-10-16T01:59:23;83.00;;;47.28;;
32780;SDS011;19136;47.032;15.502;2022-10-16T02:01:52;86.65;;;47.35;;
32780;SDS011;19136;47.032;15.502;2022-10-16T02:06:59;96.90;;;48.53;;
32780;SDS011;19136;47.032;15.502;2022-10-16T02:09:25;92.32;;;47.28;;
32780;SDS011;19136;47.032;15.502;2022-10-16T02:11:52;87.68;;;46.15;;
32780;SDS011;19136;47.032;15.502;2022-10-16T02:14:20;81.30;;;44.92;;
32780;SDS011;19136;47.032;15.502;2022-10-16T02:16:47;98.78;;;49.40;;
32780;SDS011;19136;47.032;15.502;2022-10-16T02:19:13;90.05;;;48.50;;
32780;SDS011;19136;47.032;15.502;2022-10-16T02:21:44;88.75;;;49.25;;
32780;SDS011;19136;47.032;15.502;2022-10-16T02:26:57;79.88;;;44.42;;
32780;SDS011;19136;47.032;15.502;2022-10-16T02:29:29;88.65;;;47.83;;
32780;SDS011;19136;47.032;15.502;2022-10-16T02:31:59;112.00;;;51.78;;
32780;SDS011;19136;47.032;15.502;2022-10-16T02:34:27;101.10;;;50.80;;
32780;SDS011;19136;47.032;15.502;2022-10-16T02:36:54;89.70;;;47.92;;
32780;SDS011;19136;47.032;15.502;2022-10-16T02:39:20;81.68;;;45.20;;
32780;SDS011;19136;47.032;15.502;2022-10-16T02:41:46;82.22;;;47.90;;
32780;SDS011;19136;47.032;15.502;2022-10-16T02:44:12;86.93;;;48.10;;
32780;SDS011;19136;47.032;15.502;2022-10-16T02:46:38;99.95;;;49.70;;
32780;SDS011;19136;47.032;15.502;2022-10-16T02:49:03;83.90;;;49.38;;
32780;SDS011;19136;47.032;15.502;2022-10-16T02:51:29;86.63;;;46.97;;
32780;SDS011;19136;47.032;15.502;2022-10-16T02:53:55;93.30;;;48.17;;
32780;SDS011;19136;47.032;15.502;2022-10-16T02:56:20;105.43;;;49.30;;
32780;SDS011;19136;47.032;15.502;2022-10-16T02:58:46;97.28;;;52.72;;
32780;SDS011;19136;47.032;15.502;2022-10-16T03:01:12;96.80;;;50.03;;
32780;SDS011;19136;47.032;15.502;2022-10-16T03:03:39;83.57;;;47.67;;
32780;SDS011;19136;47.032;15.502;2022-10-16T03:06:04;91.20;;;49.08;;
32780;SDS011;19136;47.032;15.502;2022-10-16T03:08:30;95.88;;;49.00;;
32780;SDS011;19136;47.032;15.502;2022-10-16T03:10:56;93.05;;;51.78;;
32780;SDS011;19136;47.032;15.502;2022-10-16T03:13:22;89.55;;;51.47;;
32780;SDS011;19136;47.032;15.502;2022-10-16T03:15:47;90.20;;;49.05;;
32780;SDS011;19136;47.032;15.502;2022-10-16T03:18:13;93.72;;;51.08;;
32780;SDS011;19136;47.032;15.502;2022-10-16T03:20:39;104.20;;;53.80;;
32780;SDS011;19136;47.032;15.502;2022-10-16T03:23:04;110.90;;;57.42;;
32780;SDS011;19136;47.032;15.502;2022-10-16T03:25:30;131.25;;;61.20;;
32780;SDS011;19136;47.032;15.502;2022-10-16T03:27:55;126.32;;;63.08;;
32780;SDS011;19136;47.032;15.502;2022-10-16T03:30:21;199.75;;;67.25;;
32780;SDS011;19136;47.032;15.502;2022-10-16T03:32:46;194.45;;;63.88;;
32780;SDS011;19136;47.032;15.502;2022-10-16T03:35:12;203.00;;;57.13;;
32780;SDS011;19136;47.032;15.502;2022-10-16T03:37:37;175.25;;;52.70;;
32780;SDS011;19136;47.032;15.502;2022-10-16T03:40:03;94.57;;;49.60;;
32780;SDS011;19136;47.032;15.502;2022-10-16T03:42:29;113.30;;;47.70;;
32780;SDS011;19136;47.032;15.502;2022-10-16T03:44:54;119.63;;;44.58;;
32780;SDS011;19136;47.032;15.502;2022-10-16T03:47:20;269.23;;;57.42;;
32780;SDS011;19136;47.032;15.502;2022-10-16T03:49:48;86.55;;;48.00;;
32780;SDS011;19136;47.032;15.502;2022-10-16T03:52:14;250.00;;;52.50;;
32780;SDS011;19136;47.032;15.502;2022-10-16T03:54:39;418.77;;;64.65;;
32780;SDS011;19136;47.032;15.502;2022-10-16T03:57:05;154.73;;;48.25;;
32780;SDS011;19136;47.032;15.502;2022-10-16T03:59:30;109.63;;;46.33;;
32780;SDS011;19136;47.032;15.502;2022-10-16T04:01:55;127.65;;;44.38;;
32780;SDS011;19136;47.032;15.502;2022-10-16T04:04:21;324.08;;;60.03;;
32780;SDS011;19136;47.032;15.502;2022-10-16T04:06:50;108.22;;;46.00;;
32780;SDS011;19136;47.032;15.502;2022-10-16T04:09:16;174.32;;;50.17;;
32780;SDS011;19136;47.032;15.502;2022-10-16T04:11:41;116.63;;;48.55;;
32780;SDS011;19136;47.032;15.502;2022-10-16T04:14:07;94.57;;;47.17;;
32780;SDS011;19136;47.032;15.502;2022-10-16T04:16:32;94.32;;;51.28;;
32780;SDS011;19136;47.032;15.502;2022-10-16T04:18:58;114.72;;;53.10;;
32780;SDS011;19136;47.032;15.502;2022-10-16T04:21:23;92.60;;;49.13;;
32780;SDS011;19136;47.032;15.502;2022-10-16T04:23:49;82.18;;;46.42;;
32780;SDS011;19136;47.032;15.502;2022-10-16T04:26:14;80.53;;;44.05;;
32780;SDS011;19136;47.032;15.502;2022-10-16T04:28:40;82.38;;;45.17;;
32780;SDS011;19136;47.032;15.502;2022-10-16T04:31:06;78.05;;;45.95;;
32780;SDS011;19136;47.032;15.502;2022-10-16T04:33:31;94.53;;;47.05;;
32780;SDS011;19136;47.032;15.502;2022-10-16T04:35:57;89.53;;;47.30;;
32780;SDS011;19136;47.032;15.502;2022-10-16T04:38:23;83.07;;;44.97;;
32780;SDS011;19136;47.032;15.502;2022-10-16T04:40:49;87.18;;;46.90;;
32780;SDS011;19136;47.032;15.502;2022-10-16T04:43:15;98.57;;;49.80;;
32780;SDS011;19136;47.032;15.502;2022-10-16T04:45:40;91.22;;;50.30;;
32780;SDS011;19136;47.032;15.502;2022-10-16T04:48:05;83.13;;;47.20;;
32780;SDS011;19136;47.032;15.502;2022-10-16T04:50:31;117.43;;;53.83;;
32780;SDS011;19136;47.032;15.502;2022-10-16T04:52:56;105.72;;;52.25;;
32780;SDS011;19136;47.032;15.502;2022-10-16T04:55:22;86.80;;;47.45;;
32780;SDS011;19136;47.032;15.502;2022-10-16T04:57:47;85.82;;;46.78;;
32780;SDS011;19136;47.032;15.502;2022-10-16T05:00:13;92.75;;;48.20;;
32780;SDS011;19136;47.032;15.502;2022-10-16T05:02:38;76.07;;;43.10;;
32780;SDS011;19136;47.032;15.502;2022-10-16T05:05:04;115.72;;;50.88;;
32780;SDS011;19136;47.032;15.502;2022-10-16T05:07:30;85.13;;;47.25;;
32780;SDS011;19136;47.032;15.502;2022-10-16T05:09:56;83.97;;;45.72;;
32780;SDS011;19136;47.032;15.502;2022-10-16T05:12:21;83.00;;;44.47;;
32780;SDS011;19136;47.032;15.502;2022-10-16T05:14:47;76.30;;;43.92;;
32780;SDS011;19136;47.032;15.502;2022-10-16T05:17:12;84.85;;;44.67;;
32780;SDS011;19136;47.032;15.502;2022-10-16T05:19:38;89.15;;;44.15;;
32780;SDS011;19136;47.032;15.502;2022-10-16T05:22:03;73.32;;;42.78;;
32780;SDS011;19136;47.032;15.502;2022-10-16T05:24:28;79.53;;;43.92;;
32780;SDS011;19136;47.032;15.502;2022-10-16T05:26:54;89.85;;;43.92;;
32780;SDS011;19136;47.032;15.502;2022-10-16T05:29:20;77.35;;;41.72;;
32780;SDS011;19136;47.032;15.502;2022-10-16T05:31:46;75.72;;;42.72;;
32780;SDS011;19136;47.032;15.502;2022-10-16T05:34:11;73.43;;;41.55;;
32780;SDS011;19136;47.032;15.502;2022-10-16T05:36:37;77.00;;;42.22;;
32780;SDS011;19136;47.032;15.502;2022-10-16T05:39:02;72.47;;;42.35;;
32780;SDS011;19136;47.032;15.502;2022-10-16T05:41:28;81.38;;;43.85;;
32780;SDS011;19136;47.032;15.502;2022-10-16T05:43:54;76.93;;;42.85;;
32780;SDS011;19136;47.032;15.502;2022-10-16T05:46:19;72.25;;;42.25;;
32780;SDS011;19136;47.032;15.502;2022-10-16T05:48:45;71.15;;;40.65;;
32780;SDS011;19136;47.032;15.502;2022-10-16T05:51:12;653.53;;;73.45;;
32780;SDS011;19136;47.032;15.502;2022-10-16T05:53:38;99.53;;;44.47;;
32780;SDS011;19136;47.032;15.502;2022-10-16T05:56:04;79.40;;;41.80;;
32780;SDS011;19136;47.032;15.502;2022-10-16T05:58:32;139.00;;;45.55;;
32780;SDS011;19136;47.032;15.502;2022-10-16T06:01:01;189.63;;;46.13;;
32780;SDS011;19136;47.032;15.502;2022-10-16T06:03:28;110.03;;;47.55;;
32780;SDS011;19136;47.032;15.502;2022-10-16T06:05:53;72.65;;;43.95;;
32780;SDS011;19136;47.032;15.502;2022-10-16T06:08:19;68.80;;;42.65;;
32780;SDS011;19136;47.032;15.502;2022-10-16T06:10:45;99.72;;;41.90;;
32780;SDS011;19136;47.032;15.502;2022-10-16T06:13:12;65.60;;;42.40;;
32780;SDS011;19136;47.032;15.502;2022-10-16T06:15:38;69.90;;;44.58;;
32780;SDS011;19136;47.032;15.502;2022-10-16T06:18:07;69.90;;;44.45;;
32780;SDS011;19136;47.032;15.502;2022-10-16T06:20:33;72.28;;;44.25;;
32780;SDS011;19136;47.032;15.502;2022-10-16T06:22:59;71.47;;;43.47;;
32780;SDS011;19136;47.032;15.502;2022-10-16T06:25:24;62.78;;;41.63;;
32780;SDS011;19136;47.032;15.502;2022-10-16T06:27:50;84.95;;;45.50;;
32780;SDS011;19136;47.032;15.502;2022-10-16T06:30:15;85.53;;;45.17;;
32780;SDS011;19136;47.032;15.502;2022-10-16T06:32:41;80.63;;;42.95;;
32780;SDS011;19136;47.032;15.502;2022-10-16T06:35:06;92.80;;;40.92;;
32780;SDS011;19136;47.032;15.502;2022-10-16T06:37:32;71.28;;;40.22;;
32780;SDS011;19136;47.032;15.502;2022-10-16T06:39:58;77.93;;;42.03;;
32780;SDS011;19136;47.032;15.502;2022-10-16T06:42:23;83.32;;;41.13;;
32780;SDS011;19136;47.032;15.502;2022-10-16T06:44:49;67.07;;;40.25;;
32780;SDS011;19136;47.032;15.502;2022-10-16T06:47:14;66.47;;;36.65;;
32780;SDS011;19136;47.032;15.502;2022-10-16T06:49:39;73.47;;;38.95;;
32780;SDS011;19136;47.032;15.502;2022-10-16T06:52:05;67.78;;;38.78;;
32780;SDS011;19136;47.032;15.502;2022-10-16T06:54:30;157.05;;;41.70;;
32780;SDS011;19136;47.032;15.502;2022-10-16T06:56:56;67.05;;;38.00;;
32780;SDS011;19136;47.032;15.502;2022-10-16T06:59:21;56.47;;;36.22;;
32780;SDS011;19136;47.032;15.502;2022-10-16T07:01:47;62.25;;;36.45;;
32780;SDS011;19136;47.032;15.502;2022-10-16T07:04:12;53.95;;;33.80;;
32780;SDS011;19136;47.032;15.502;2022-10-16T07:06:38;55.60;;;35.00;;
32780;SDS011;19136;47.032;15.502;2022-10-16T07:09:06;53.90;;;33.45;;
32780;SDS011;19136;47.032;15.502;2022-10-16T07:11:35;49.58;;;32.30;;
32780;SDS011;19136;47.032;15.502;2022-10-16T07:14:01;52.83;;;32.97;;
32780;SDS011;19136;47.032;15.502;2022-10-16T07:16:28;52.33;;;32.75;;
32780;SDS011;19136;47.032;15.502;2022-10-16T07:18:55;48.10;;;30.77;;
32780;SDS011;19136;47.032;15.502;2022-10-16T07:21:25;43.35;;;28.63;;
32780;SDS011;19136;47.032;15.502;2022-10-16T07:23:58;49.17;;;32.13;;
32780;SDS011;19136;47.032;15.502;2022-10-16T07:26:25;44.22;;;27.55;;
32780;SDS011;19136;47.032;15.502;2022-10-16T07:28:51;47.10;;;29.95;;
32780;SDS011;19136;47.032;15.502;2022-10-16T07:31:17;39.10;;;28.45;;
32780;SDS011;19136;47.032;15.502;2022-10-16T07:33:44;60.88;;;36.58;;
32780;SDS011;19136;47.032;15.502;2022-10-16T07:36:12;50.20;;;31.70;;
32780;SDS011;19136;47.032;15.502;2022-10-16T07:38:37;39.15;;;27.65;;
32780;SDS011;19136;47.032;15.502;2022-10-16T07:41:04;43.63;;;27.58;;
32780;SDS011;19136;47.032;15.502;2022-10-16T07:43:31;42.22;;;28.83;;
32780;SDS011;19136;47.032;15.502;2022-10-16T07:45:57;37.67;;;26.77;;
32780;SDS011;19136;47.032;15.502;2022-10-16T07:48:22;33.58;;;24.60;;
32780;SDS011;19136;47.032;15.502;2022-10-16T07:50:48;33.85;;;23.73;;
32780;SDS011;19136;47.032;15.502;2022-10-16T07:53:14;30.52;;;22.92;;
32780;SDS011;19136;47.032;15.502;2022-10-16T07:55:40;29.70;;;22.20;;
32780;SDS011;19136;47.032;15.502;2022-10-16T07:58:06;31.73;;;24.35;;
32780;SDS011;19136;47.032;15.502;2022-10-16T08:00:31;31.23;;;22.33;;
32780;SDS011;19136;47.032;15.502;2022-10-16T08:02:57;34.60;;;23.08;;
32780;SDS011;19136;47.032;15.502;2022-10-16T08:05:29;30.30;;;22.92;;
32780;SDS011;19136;47.032;15.502;2022-10-16T08:07:56;38.58;;;22.67;;
32780;SDS011;19136;47.032;15.502;2022-10-16T08:10:22;27.95;;;20.83;;
32780;SDS011;19136;47.032;15.502;2022-10-16T08:12:49;29.50;;;21.92;;
32780;SDS011;19136;47.032;15.502;2022-10-16T08:15:15;27.17;;;20.77;;
32780;SDS011;19136;47.032;15.502;2022-10-16T08:17:41;28.45;;;21.73;;
32780;SDS011;19136;47.032;15.502;2022-10-16T08:20:07;29.45;;;20.55;;
32780;SDS011;19136;47.032;15.502;2022-10-16T08:22:33;30.92;;;24.15;;
32780;SDS011;19136;47.032;15.502;2022-10-16T08:24:59;33.38;;;25.10;;
32780;SDS011;19136;47.032;15.502;2022-10-16T08:27:25;29.77;;;21.45;;
32780;SDS011;19136;47.032;15.502;2022-10-16T08:29:51;42.72;;;27.35;;
32780;SDS011;19136;47.032;15.502;2022-10-16T08:32:16;32.80;;;22.67;;
32780;SDS011;19136;47.032;15.502;2022-10-16T08:34:42;33.13;;;23.20;;
32780;SDS011;19136;47.032;15.502;2022-10-16T08:37:07;32.58;;;24.30;;
32780;SDS011;19136;47.032;15.502;2022-10-16T08:39:36;29.55;;;22.98;;
32780;SDS011;19136;47.032;15.502;2022-10-16T08:53:01;30.40;;;22.75;;
32780;SDS011;19136;47.032;15.502;2022-10-16T08:55:30;30.88;;;22.05;;
32780;SDS011;19136;47.032;15.502;2022-10-16T08:57:58;33.08;;;22.83;;
32780;SDS011;19136;47.032;15.502;2022-10-16T09:00:24;30.75;;;21.80;;
32780;SDS011;19136;47.032;15.502;2022-10-16T09:02:52;33.00;;;22.83;;
32780;SDS011;19136;47.032;15.502;2022-10-16T09:17:16;29.60;;;21.00;;
32780;SDS011;19136;47.032;15.502;2022-10-16T09:20:08;28.50;;;21.50;;
32780;SDS011;19136;47.032;15.502;2022-10-16T09:22:38;33.65;;;24.95;;
32780;SDS011;19136;47.032;15.502;2022-10-16T09:25:37;33.47;;;23.42;;
32780;SDS011;19136;47.032;15.502;2022-10-16T09:27:56;34.72;;;25.33;;
32780;SDS011;19136;47.032;15.502;2022-10-16T09:30:29;28.75;;;22.40;;
32780;SDS011;19136;47.032;15.502;2022-10-16T09:32:54;27.40;;;20.67;;
32780;SDS011;19136;47.032;15.502;2022-10-16T09:35:24;28.45;;;20.38;;
32780;SDS011;19136;47.032;15.502;2022-10-16T09:37:56;32.85;;;22.52;;
32780;SDS011;19136;47.032;15.502;2022-10-16T09:40:26;30.23;;;20.50;;
32780;SDS011;19136;47.032;15.502;2022-10-16T09:43:07;27.75;;;20.33;;
32780;SDS011;19136;47.032;15.502;2022-10-16T09:45:57;23.88;;;18.35;;
32780;SDS011;19136;47.032;15.502;2022-10-16T09:48:47;26.35;;;19.75;;
32780;SDS011;19136;47.032;15.502;2022-10-16T09:53:47;34.67;;;23.88;;
32780;SDS011;19136;47.032;15.502;2022-10-16T09:56:27;32.90;;;21.33;;
32780;SDS011;19136;47.032;15.502;2022-10-16T09:58:55;34.22;;;24.10;;
32780;SDS011;19136;47.032;15.502;2022-10-16T10:01:28;36.42;;;23.48;;
32780;SDS011;19136;47.032;15.502;2022-10-16T10:03:57;32.88;;;23.15;;
32780;SDS011;19136;47.032;15.502;2022-10-16T10:06:33;31.80;;;19.75;;
32780;SDS011;19136;47.032;15.502;2022-10-16T10:14:31;28.83;;;19.50;;
32780;SDS011;19136;47.032;15.502;2022-10-16T10:17:29;42.72;;;20.33;;
32780;SDS011;19136;47.032;15.502;2022-10-16T10:20:00;28.85;;;19.98;;
32780;SDS011;19136;47.032;15.502;2022-10-16T10:22:30;26.77;;;19.42;;
32780;SDS011;19136;47.032;15.502;2022-10-16T10:27:46;24.45;;;18.98;;
32780;SDS011;19136;47.032;15.502;2022-10-16T10:36:09;25.17;;;18.85;;
32780;SDS011;19136;47.032;15.502;2022-10-16T10:38:57;23.23;;;19.02;;
32780;SDS011;19136;47.032;15.502;2022-10-16T10:47:25;27.52;;;18.00;;
32780;SDS011;19136;47.032;15.502;2022-10-16T10:50:14;27.98;;;19.38;;
32780;SDS011;19136;47.032;15.502;2022-10-16T10:52:59;22.35;;;17.92;;
32780;SDS011;19136;47.032;15.502;2022-10-16T10:55:40;23.30;;;18.35;;
32780;SDS011;19136;47.032;15.502;2022-10-16T11:01:15;28.00;;;16.92;;
32780;SDS011;19136;47.032;15.502;2022-10-16T11:04:01;20.80;;;16.17;;
32780;SDS011;19136;47.032;15.502;2022-10-16T11:06:40;26.25;;;19.08;;
32780;SDS011;19136;47.032;15.502;2022-10-16T11:09:10;27.77;;;16.58;;
32780;SDS011;19136;47.032;15.502;2022-10-16T11:24:53;27.60;;;15.50;;
32780;SDS011;19136;47.032;15.502;2022-10-16T11:27:33;25.95;;;15.77;;
32780;SDS011;19136;47.032;15.502;2022-10-16T11:30:04;21.58;;;15.90;;
32780;SDS011;19136;47.032;15.502;2022-10-16T11:32:35;22.52;;;16.55;;
32780;SDS011;19136;47.032;15.502;2022-10-16T11:35:17;26.73;;;16.60;;
32780;SDS011;19136;47.032;15.502;2022-10-16T11:37:47;21.42;;;16.05;;
32780;SDS011;19136;47.032;15.502;2022-10-16T11:40:19;25.50;;;16.23;;
32780;SDS011;19136;47.032;15.502;2022-10-16T11:42:51;23.08;;;15.68;;
32780;SDS011;19136;47.032;15.502;2022-10-16T11:54:02;27.23;;;17.08;;
32780;SDS011;19136;47.032;15.502;2022-10-16T11:56:50;26.33;;;16.08;;
32780;SDS011;19136;47.032;15.502;2022-10-16T11:59:20;28.02;;;16.55;;
32780;SDS011;19136;47.032;15.502;2022-10-16T12:07:32;19.90;;;15.30;;
32780;SDS011;19136;47.032;15.502;2022-10-16T12:10:10;23.40;;;15.32;;
32780;SDS011;19136;47.032;15.502;2022-10-16T12:12:45;20.33;;;15.63;;
32780;SDS011;19136;47.032;15.502;2022-10-16T12:15:19;22.88;;;15.68;;
32780;SDS011;19136;47.032;15.502;2022-10-16T12:17:45;27.13;;;16.20;;
32780;SDS011;19136;47.032;15.502;2022-10-16T12:22:36;23.25;;;16.20;;
32780;SDS011;19136;47.032;15.502;2022-10-16T12:25:01;23.38;;;17.08;;
32780;SDS011;19136;47.032;15.502;2022-10-16T12:27:28;22.83;;;16.77;;
32780;SDS011;19136;47.032;15.502;2022-10-16T12:30:02;25.95;;;16.15;;
32780;SDS011;19136;47.032;15.502;2022-10-16T12:32:34;22.05;;;15.40;;
32780;SDS011;19136;47.032;15.502;2022-10-16T12:35:02;19.77;;;15.50;;
32780;SDS011;19136;47.032;15.502;2022-10-16T12:37:35;20.58;;;15.75;;
32780;SDS011;19136;47.032;15.502;2022-10-16T12:40:11;19.55;;;15.40;;
32780;SDS011;19136;47.032;15.502;2022-10-16T12:42:48;23.40;;;14.38;;
32780;SDS011;19136;47.032;15.502;2022-10-16T12:47:52;17.70;;;13.73;;
32780;SDS011;19136;47.032;15.502;2022-10-16T12:50:52;19.95;;;14.80;;
32780;SDS011;19136;47.032;15.502;2022-10-16T12:53:21;18.80;;;14.55;;
32780;SDS011;19136;47.032;15.502;2022-10-16T13:06:39;20.10;;;15.15;;
32780;SDS011;19136;47.032;15.502;2022-10-16T13:22:59;24.73;;;17.00;;
32780;SDS011;19136;47.032;15.502;2022-10-16T13:25:53;27.40;;;17.70;;
32780;SDS011;19136;47.032;15.502;2022-10-16T13:28:34;21.27;;;16.25;;
32780;SDS011;19136;47.032;15.502;2022-10-16T13:31:01;20.45;;;14.68;;
32780;SDS011;19136;47.032;15.502;2022-10-16T13:33:32;23.98;;;16.20;;
32780;SDS011;19136;47.032;15.502;2022-10-16T13:35:59;21.02;;;16.17;;
32780;SDS011;19136;47.032;15.502;2022-10-16T13:38:28;23.98;;;15.38;;
32780;SDS011;19136;47.032;15.502;2022-10-16T13:41:02;29.25;;;16.85;;
32780;SDS011;19136;47.032;15.502;2022-10-16T13:43:47;21.17;;;15.55;;
32780;SDS011;19136;47.032;15.502;2022-10-16T13:46:16;23.00;;;15.85;;
32780;SDS011;19136;47.032;15.502;2022-10-16T13:48:42;20.70;;;15.40;;
32780;SDS011;19136;47.032;15.502;2022-10-16T13:51:15;22.27;;;16.98;;
32780;SDS011;19136;47.032;15.502;2022-10-16T13:53:42;24.38;;;17.05;;
32780;SDS011;19136;47.032;15.502;2022-10-16T13:56:15;29.13;;;18.20;;
32780;SDS011;19136;47.032;15.502;2022-10-16T13:58:43;25.25;;;16.80;;
32780;SDS011;19136;47.032;15.502;2022-10-16T14:01:26;27.23;;;17.33;;
32780;SDS011;19136;47.032;15.502;2022-10-16T14:04:00;24.08;;;17.63;;
32780;SDS011;19136;47.032;15.502;2022-10-16T14:06:27;30.10;;;16.95;;
32780;SDS011;19136;47.032;15.502;2022-10-16T14:09:06;28.23;;;19.17;;
32780;SDS011;19136;47.032;15.502;2022-10-16T14:11:45;27.35;;;18.42;;
32780;SDS011;19136;47.032;15.502;2022-10-16T14:14:13;27.85;;;17.45;;
32780;SDS011;19136;47.032;15.502;2022-10-16T14:16:40;23.02;;;17.65;;
32780;SDS011;19136;47.032;15.502;2022-10-16T14:19:06;25.48;;;17.35;;
32780;SDS011;19136;47.032;15.502;2022-10-16T14:21:52;24.40;;;18.40;;
32780;SDS011;19136;47.032;15.502;2022-10-16T14:27:24;27.50;;;18.88;;
32780;SDS011;19136;47.032;15.502;2022-10-16T14:30:12;32.38;;;20.52;;
32780;SDS011;19136;47.032;15.502;2022-10-16T14:32:57;26.52;;;18.73;;
32780;SDS011;19136;47.032;15.502;2022-10-16T14:35:37;26.90;;;19.38;;
32780;SDS011;19136;47.032;15.502;2022-10-16T14:38:04;27.30;;;19.77;;
32780;SDS011;19136;47.032;15.502;2022-10-16T14:40:32;27.65;;;20.08;;
32780;SDS011;19136;47.032;15.502;2022-10-16T14:42:59;28.25;;;20.13;;
32780;SDS011;19136;47.032;15.502;2022-10-16T14:45:26;30.73;;;21.52;;
32780;SDS011;19136;47.032;15.502;2022-10-16T14:47:54;33.28;;;22.60;;
32780;SDS011;19136;47.032;15.502;2022-10-16T14:50:22;28.92;;;20.98;;
32780;SDS011;19136;47.032;15.502;2022-10-16T14:52:48;31.83;;;22.30;;
32780;SDS011;19136;47.032;15.502;2022-10-16T14:55:14;32.53;;;23.38;;
32780;SDS011;19136;47.032;15.502;2022-10-16T14:57:40;31.27;;;22.92;;
32780;SDS011;19136;47.032;15.502;2022-10-16T15:00:16;39.35;;;25.95;;
32780;SDS011;19136;47.032;15.502;2022-10-16T15:02:43;36.78;;;24.55;;
32780;SDS011;19136;47.032;15.502;2022-10-16T15:05:14;38.10;;;23.90;;
32780;SDS011;19136;47.032;15.502;2022-10-16T15:07:43;43.70;;;24.25;;
32780;SDS011;19136;47.032;15.502;2022-10-16T15:10:10;38.97;;;25.40;;
32780;SDS011;19136;47.032;15.502;2022-10-16T15:12:36;38.63;;;25.52;;
32780;SDS011;19136;47.032;15.502;2022-10-16T15:15:09;37.75;;;24.58;;
32780;SDS011;19136;47.032;15.502;2022-10-16T15:18:00;39.15;;;25.75;;
32780;SDS011;19136;47.032;15.502;2022-10-16T15:20:28;38.75;;;25.80;;
32780;SDS011;19136;47.032;15.502;2022-10-16T15:22:59;40.85;;;25.55;;
32780;SDS011;19136;47.032;15.502;2022-10-16T15:25:36;42.47;;;26.75;;
32780;SDS011;19136;47.032;15.502;2022-10-16T15:28:07;40.33;;;25.23;;
32780;SDS011;19136;47.032;15.502;2022-10-16T15:30:34;39.75;;;25.13;;
32780;SDS011;19136;47.032;15.502;2022-10-16T15:33:00;42.70;;;25.55;;
32780;SDS011;19136;47.032;15.502;2022-10-16T15:35:27;36.85;;;25.30;;
32780;SDS011;19136;47.032;15.502;2022-10-16T15:37:52;42.13;;;26.85;;
32780;SDS011;19136;47.032;15.502;2022-10-16T15:40:19;41.92;;;25.95;;
32780;SDS011;19136;47.032;15.502;2022-10-16T15:42:44;42.33;;;25.70;;
32780;SDS011;19136;47.032;15.502;2022-10-16T15:45:11;38.58;;;26.65;;
32780;SDS011;19136;47.032;15.502;2022-10-16T15:47:37;39.90;;;25.65;;
32780;SDS011;19136;47.032;15.502;2022-10-16T15:50:03;40.30;;;26.05;;
32780;SDS011;19136;47.032;15.502;2022-10-16T15:52:30;35.50;;;26.13;;
32780;SDS011;19136;47.032;15.502;2022-10-16T15:54:57;39.42;;;25.25;;
32780;SDS011;19136;47.032;15.502;2022-10-16T15:57:23;37.47;;;26.75;;
32780;SDS011;19136;47.032;15.502;2022-10-16T15:59:49;45.03;;;27.40;;
32780;SDS011;19136;47.032;15.502;2022-10-16T16:02:14;45.17;;;28.33;;
32780;SDS011;19136;47.032;15.502;2022-10-16T16:04:40;42.88;;;27.58;;
32780;SDS011;19136;47.032;15.502;2022-10-16T16:07:06;41.90;;;26.88;;
32780;SDS011;19136;47.032;15.502;2022-10-16T16:09:34;47.63;;;29.15;;
32780;SDS011;19136;47.032;15.502;2022-10-16T16:12:00;42.97;;;27.05;;
32780;SDS011;19136;47.032;15.502;2022-10-16T16:14:26;51.80;;;29.95;;
32780;SDS011;19136;47.032;15.502;2022-10-16T16:16:55;45.30;;;27.48;;
32780;SDS011;19136;47.032;15.502;2022-10-16T16:19:21;47.88;;;28.92;;
32780;SDS011;19136;47.032;15.502;2022-10-16T16:21:49;45.25;;;27.88;;
32780;SDS011;19136;47.032;15.502;2022-10-16T16:24:15;45.03;;;28.08;;
32780;SDS011;19136;47.032;15.502;2022-10-16T16:26:41;44.83;;;27.38;;